Impacts TAF Board
For situational awareness. Not to be used for flight planning purposes.
IDs:

KIAH - Houston/Bush Intl, TX, US

Issued at 1735 UTC 23 Jan 2020
Updated at 1920 UTC 23 Jan 2020
Potential Impact None Slight Moderate High
Time<<24/08Z 24/09Z 24/10Z 24/11Z 24/12Z 24/13Z 24/14Z 24/15Z 24/16Z 24/17Z 24/18Z 24/19Z 24/20Z>>
Type PRVL PRVL PRVL PRVL PRVL PRVL PRVL PRVL PRVL PRVL PRVL PRVL PRVL
VIS >6 >6 >6 >6 >6 >6 >6 >6 >6 >6 >6 >6 >6
CIG -- -- -- -- -- -- -- -- -- -- -- -- --
Cover SKC SKC SKC SKC SKC SKC SKC SKC SKC SKC SKC SKC SKC
FltCat VFR VFR VFR VFR VFR VFR VFR VFR VFR VFR VFR VFR VFR
WX -- -- -- -- -- -- -- -- -- -- -- -- --
WDir 340 340 340 340 340 340 340 340 340 340 VRB VRB VRB
WSpd 5 5 5 5 5 5 5 5 5 5 4 4 4
WGst -- -- -- -- -- -- -- -- -- -- -- -- --
R08/26
XWnd 5 5 5 5 5 5 5 5 5 5 VRB VRB VRB
HWnd -2 -2 -2 -2 -2 -2 -2 -2 -2 -2 VRB VRB VRB
R09/27
XWnd 5 5 5 5 5 5 5 5 5 5 VRB VRB VRB
HWnd -2 -2 -2 -2 -2 -2 -2 -2 -2 -2 VRB VRB VRB
R15/33
XWnd 1 1 1 1 1 1 1 1 1 1 VRB VRB VRB
HWnd -5 -5 -5 -5 -5 -5 -5 -5 -5 -5 VRB VRB VRB
Raw TAF
KIAH 231735Z 2318/2424 31010KT P6SM OVC015
  TEMPO 2318/2319 BKN009 OVC013
  FM232200 33013KT P6SM SCT015
  FM240000 34005KT P6SM SKC
  FM241800 VRB04KT P6SM SKC


METAR Board
Radar Display
Forecast Discussion
For situational awareness. Not to be used for flight planning purposes.